Terminal Aerodrome Forecast
Issued by NWS

Home | Current Version | Previous Version | Text Only | Print | Product List | Glossary On
Versions: 1 2 3 4 5 6 7 8 9 10 11 12 13 14 15 16 17 18 19 20 21 22
000
FTUS46 KSEW 291954 AAA
TAFHQM
TAF AMD
KHQM 291954Z 2920/3018 19020G30KT P6SM -SHRA BKN030 OVC070
      TEMPO 2920/2922 1 1/2SM RA BR BKN010 OVC030
     FM292300 18015G25KT 5SM -RA OVC020
     FM300300 19012KT P6SM -SHRA BKN015 OVC030
     FM300900 19010KT P6SM -SHRA BKN025 OVC050=

USA.gov is the U.S. government's official web portal to all federal, state and local government web resources and services.